Time;durP1;ratioP1;P1;durP2;ratioP2;P2;SDS_P1;SDS_P2;PMS_P1;PMS_P2;Temp;Humidity;BMP_temperature;BMP_pressure;BME280_temperature;BME280_humidity;BME280_pressure;Samples;Min_cycle;Max_cycle;Signal;HPM_P1;HPM_P2
2023/03/28 00:02:46;;;;;;;10.48;6.72;;;;;;;8.51;73.69;96372.19;10356382;28;20029;-54
2023/03/28 00:07:45;;;;;;;8.57;4.95;;;;;;;8.35;73.91;96414.66;10365846;28;20037;-54
2023/03/28 00:12:44;;;;;;;4.85;3.92;;;;;;;7.77;74.93;96434.31;10335358;28;20193;-54
2023/03/28 00:17:43;;;;;;;6.07;4.45;;;;;;;7.73;74.87;96448.09;10351602;28;20156;-54
2023/03/28 00:22:43;;;;;;;7.03;4.40;;;;;;;7.79;80.24;96445.47;10358610;28;20132;-53
2023/03/28 00:27:41;;;;;;;7.35;5.13;;;;;;;7.69;79.45;96451.63;10344704;28;20160;-53
2023/03/28 00:32:41;;;;;;;6.40;4.25;;;;;;;7.66;80.49;96457.66;10360676;28;20113;-54
2023/03/28 00:37:40;;;;;;;5.32;3.95;;;;;;;7.67;81.28;96456.78;10348720;28;20064;-54
2023/03/28 00:42:41;;;;;;;9.25;7.30;;;;;;;7.51;79.75;96489.63;10361698;28;20064;-54
2023/03/28 00:47:45;;;;;;;6.55;3.90;;;;;;;7.06;81.04;96427.22;10351099;28;20072;-54
2023/03/28 00:52:58;;;;;;;3.17;2.30;;;;;;;7.27;76.40;96502.75;10347360;28;20141;-54
2023/03/28 00:57:57;;;;;;;2.40;1.80;;;;;;;7.00;71.81;96507.22;10364900;28;20072;-54
2023/03/28 01:02:57;;;;;;;;;;;;;;;7.08;74.09;96510.63;10410591;28;20076;-54
2023/03/28 01:08:01;;;;;;;1.80;1.70;;;;;;;6.79;70.13;96532.28;10409266;28;19972;-54
2023/03/28 01:13:01;;;;;;;2.22;2.00;;;;;;;6.78;70.85;96538.31;10410025;28;20489;-54
2023/03/28 01:18:01;;;;;;;2.78;2.00;;;;;;;6.71;68.34;96552.09;10408975;28;20059;-54
2023/03/28 01:23:42;;;;;;;2.42;1.70;;;;;;;6.61;67.07;96532.41;10409337;28;20060;-55
2023/03/28 01:29:01;;;;;;;1.95;1.77;;;;;;;6.37;65.72;96531.66;10344204;28;20136;-54
2023/03/28 01:34:29;;;;;;;1.90;1.80;;;;;;;6.28;65.57;96538.53;10371457;28;20079;-55
2023/03/28 01:39:58;;;;;;;2.00;1.90;;;;;;;6.05;64.84;96533.47;10394038;28;20076;-54
2023/03/28 01:45:16;;;;;;;1.95;1.75;;;;;;;5.94;63.33;96560.09;10366828;28;20509;-54
2023/03/28 01:50:18;;;;;;;2.55;1.77;;;;;;;5.72;62.20;96567.00;10403715;28;20060;-55
2023/03/28 01:55:29;;;;;;;2.20;2.00;;;;;;;5.36;61.78;96564.44;10368372;28;20064;-55
2023/03/28 02:00:36;;;;;;;3.13;2.28;;;;;;;5.30;61.23;96585.91;10369209;28;20043;-55
2023/03/28 02:05:36;;;;;;;2.60;2.30;;;;;;;5.10;61.60;96597.00;10410800;28;20058;-55
2023/03/28 02:10:39;;;;;;;3.08;2.55;;;;;;;4.74;61.44;96540.34;10411060;28;20048;-55
2023/03/28 02:15:41;;;;;;;3.38;2.80;;;;;;;4.76;60.65;96548.88;10410721;28;20060;-55
2023/03/28 02:20:43;;;;;;;2.35;2.15;;;;;;;4.87;60.56;96606.31;10409872;28;20047;-55
2023/03/28 02:25:42;;;;;;;4.43;3.40;;;;;;;4.97;61.08;96635.53;10401445;28;20053;-55
2023/03/28 02:30:41;;;;;;;2.80;2.55;;;;;;;4.81;59.68;96648.31;10363899;28;20046;-55
2023/03/28 02:35:59;;;;;;;3.60;3.20;;;;;;;4.69;59.58;96625.13;10365003;28;20063;-55
2023/03/28 02:41:29;;;;;;;3.88;3.20;;;;;;;4.60;59.25;96661.06;10360579;28;20056;-55
2023/03/28 02:47:00;;;;;;;4.10;3.70;;;;;;;4.69;59.80;96684.25;10350464;28;20148;-55
2023/03/28 02:52:08;;;;;;;3.75;3.40;;;;;;;4.55;59.41;96678.16;10323705;28;20160;-55
2023/03/28 02:57:15;;;;;;;3.88;3.45;;;;;;;4.52;59.68;96685.84;10347377;28;20057;-53
2023/03/28 03:02:16;;;;;;;4.22;3.83;;;;;;;4.58;59.93;96684.16;10349671;28;20152;-53
2023/03/28 03:07:17;;;;;;;5.55;4.18;;;;;;;4.52;59.29;96671.28;10347830;28;20103;-55
2023/03/28 03:12:16;;;;;;;4.38;3.70;;;;;;;4.42;58.77;96656.69;10348852;28;20180;-53
2023/03/28 03:17:16;;;;;;;8.15;3.92;;;;;;;4.45;59.19;96666.97;10349901;28;20076;-54
2023/03/28 03:22:15;;;;;;;4.72;3.90;;;;;;;4.39;58.82;96687.50;10342603;28;20121;-53
2023/03/28 03:27:14;;;;;;;5.65;4.30;;;;;;;4.27;58.17;96696.84;10349356;28;20076;-54
2023/03/28 03:32:14;;;;;;;5.50;4.22;;;;;;;4.17;58.19;96715.56;10360074;28;20578;-53
2023/03/28 03:37:13;;;;;;;4.80;4.13;;;;;;;4.20;57.84;96722.47;10363135;28;20113;-53
2023/03/28 03:42:13;;;;;;;4.95;4.50;;;;;;;4.15;58.62;96744.66;10360284;28;20079;-53
2023/03/28 03:47:12;;;;;;;5.43;4.13;;;;;;;3.96;57.93;96738.50;10366739;28;20079;-53
2023/03/28 03:52:11;;;;;;;5.03;4.20;;;;;;;4.05;58.12;96754.00;10361923;28;20072;-53
2023/03/28 03:57:10;;;;;;;;;;;;;;;4.03;58.00;96751.44;10363597;28;20061;-53
2023/03/28 04:02:09;;;;;;;6.75;4.10;;;;;;;4.06;56.87;96766.00;10360042;28;19999;-55
2023/03/28 04:07:08;;;;;;;4.55;3.80;;;;;;;3.98;56.95;96772.75;10360422;28;20057;-55
2023/03/28 04:12:07;;;;;;;5.43;4.18;;;;;;;3.94;57.55;96792.44;10362353;28;20028;-55
2023/03/28 04:17:06;;;;;;;;;;;;;;;3.98;56.62;96798.44;10361000;28;20052;-54
2023/03/28 04:22:06;;;;;;;3.58;3.05;;;;;;;3.99;56.54;96792.47;10351989;28;19964;-54
2023/03/28 04:27:08;;;;;;;3.70;3.30;;;;;;;3.86;56.16;96815.44;10349151;28;20132;-53
2023/03/28 04:32:09;;;;;;;5.00;3.50;;;;;;;3.88;56.01;96820.59;10361244;28;20152;-54
2023/03/28 04:37:08;;;;;;;7.88;3.50;;;;;;;3.98;55.29;96826.66;10360534;28;20473;-54
2023/03/28 04:42:08;;;;;;;6.15;3.72;;;;;;;3.91;54.59;96822.31;10360692;28;20725;-54
2023/03/28 04:47:10;;;;;;;;;;;;;;;4.01;54.96;96831.81;10360590;28;20128;-54
2023/03/28 04:52:09;;;;;;;4.15;3.10;;;;;;;4.03;55.24;96828.44;10363775;28;20023;-54
2023/03/28 04:57:08;;;;;;;3.65;2.95;;;;;;;3.98;54.41;96830.09;10368266;28;20623;-54
2023/03/28 05:02:07;;;;;;;4.35;2.80;;;;;;;3.97;53.63;96830.09;10369254;28;20433;-54
2023/03/28 05:07:06;;;;;;;4.15;2.53;;;;;;;4.09;52.74;96855.88;10369953;28;20028;-55
2023/03/28 05:12:05;;;;;;;3.47;2.15;;;;;;;4.17;52.65;96856.78;10369757;28;20127;-54
2023/03/28 05:17:04;;;;;;;;;;;;;;;4.25;52.33;96862.88;10368918;28;20155;-54
2023/03/28 05:22:03;;;;;;;4.50;2.70;;;;;;;4.41;52.09;96870.75;10366761;28;20694;-54
2023/03/28 05:27:02;;;;;;;5.03;2.22;;;;;;;4.75;51.91;96865.88;10366043;28;20049;-54
2023/03/28 05:32:01;;;;;;;2.72;1.92;;;;;;;5.05;50.44;96880.69;10368938;28;20131;-54
2023/03/28 05:37:00;;;;;;;4.53;2.20;;;;;;;5.30;50.36;96869.69;10366586;28;20031;-54
2023/03/28 05:41:59;;;;;;;4.78;2.25;;;;;;;5.46;49.21;96870.63;10367196;28;20115;-54
2023/03/28 05:46:58;;;;;;;1.98;1.80;;;;;;;5.68;48.44;96869.00;10366505;28;20048;-54
2023/03/28 05:51:57;;;;;;;5.20;2.72;;;;;;;5.93;48.07;96866.50;10364797;28;20394;-54
2023/03/28 05:56:56;;;;;;;2.63;2.03;;;;;;;6.00;46.86;96837.38;10368511;28;20111;-54
2023/03/28 06:01:55;;;;;;;2.75;1.70;;;;;;;6.35;46.38;96878.66;10364764;28;20240;-54
2023/03/28 06:06:54;;;;;;;4.82;1.77;;;;;;;6.39;46.20;96885.50;10361849;28;20447;-54
2023/03/28 06:11:53;;;;;;;2.58;2.08;;;;;;;6.35;46.77;96883.81;10364652;28;20064;-54
2023/03/28 06:16:53;;;;;;;2.28;1.70;;;;;;;6.26;45.42;96895.78;10363753;28;20045;-54
2023/03/28 06:21:52;;;;;;;2.50;1.90;;;;;;;6.03;46.38;96919.78;10366917;28;20127;-54
2023/03/28 06:26:51;;;;;;;;;;;;;;;5.81;46.60;96934.25;10372956;28;20083;-54
2023/03/28 06:31:50;;;;;;;3.65;2.35;;;;;;;5.85;47.10;96936.00;10393580;28;20013;-54
2023/03/28 06:36:48;;;;;;;3.63;2.10;;;;;;;5.74;47.17;96922.22;10394882;28;20072;-54
2023/03/28 06:41:47;;;;;;;3.28;2.40;;;;;;;5.86;47.50;96949.72;10407846;28;20060;-54
2023/03/28 06:46:46;;;;;;;2.53;2.15;;;;;;;5.83;47.30;96937.72;10393107;28;20052;-54
2023/03/28 06:51:45;;;;;;;5.25;2.75;;;;;;;5.86;47.03;96944.59;10407384;28;20032;-54
2023/03/28 06:56:44;;;;;;;4.43;3.33;;;;;;;5.81;47.21;96936.84;10373521;28;20020;-54
2023/03/28 07:01:43;;;;;;;4.60;3.10;;;;;;;5.71;46.62;96935.94;10361839;28;20135;-54
2023/03/28 07:06:42;;;;;;;3.97;2.90;;;;;;;5.66;47.19;96952.22;10363651;28;20134;-54
2023/03/28 07:11:41;;;;;;;5.70;3.95;;;;;;;5.88;47.00;96964.38;10363571;28;20115;-54
2023/03/28 07:16:40;;;;;;;6.45;3.63;;;;;;;6.21;47.04;96970.50;10364163;28;20064;-54
2023/03/28 07:21:39;;;;;;;3.55;3.25;;;;;;;6.33;46.48;96978.28;10385881;28;20031;-54
2023/03/28 07:26:38;;;;;;;8.63;4.82;;;;;;;6.58;46.00;96988.63;10387732;28;20816;-54
2023/03/28 07:31:37;;;;;;;;;;;;;;;6.90;45.36;97001.59;10386765;28;20070;-54
2023/03/28 07:36:38;;;;;;;4.45;3.17;;;;;;;7.20;44.70;97005.06;10367465;28;19917;-54
2023/03/28 07:41:37;;;;;;;4.65;3.08;;;;;;;7.44;42.08;97014.53;10360780;28;20053;-54
2023/03/28 07:46:36;;;;;;;3.17;2.88;;;;;;;7.75;41.65;97005.03;10368495;28;20056;-54
2023/03/28 07:51:35;;;;;;;3.25;2.53;;;;;;;8.23;41.64;97023.00;10361669;28;20029;-54
2023/03/28 07:56:34;;;;;;;4.35;2.80;;;;;;;8.44;40.47;97022.91;10360259;28;20513;-54
2023/03/28 08:01:33;;;;;;;7.13;3.13;;;;;;;9.00;39.85;97030.38;10359014;28;20586;-54
2023/03/28 08:06:33;;;;;;;5.00;3.17;;;;;;;9.24;39.19;97040.56;10365802;28;20132;-54
2023/03/28 08:11:33;;;;;;;6.57;2.90;;;;;;;9.18;38.01;97008.69;10359010;28;20224;-54
2023/03/28 08:16:32;;;;;;;5.25;2.80;;;;;;;9.63;37.70;97040.28;10362549;28;20068;-55
2023/03/28 08:21:34;;;;;;;7.25;3.10;;;;;;;9.51;37.35;97068.03;10364552;28;20036;-54
2023/03/28 08:26:33;;;;;;;4.65;2.80;;;;;;;9.46;36.12;97062.00;10364892;28;21018;-54
2023/03/28 08:31:32;;;;;;;11.88;3.47;;;;;;;9.26;36.02;97035.38;10394035;28;20060;-54
2023/03/28 08:36:31;;;;;;;5.65;3.33;;;;;;;9.16;35.99;97055.31;10387355;28;20115;-54
2023/03/28 08:41:54;;;;;;;5.70;3.22;;;;;;;9.46;36.15;97084.44;10382297;28;20125;-54
2023/03/28 08:46:58;;;;;;;8.65;5.13;;;;;;;9.54;35.24;97098.22;10388123;28;20071;-54
2023/03/28 08:52:00;;;;;;;5.07;2.55;;;;;;;9.54;35.27;97105.97;10401406;28;20139;-54
2023/03/28 08:57:02;;;;;;;6.38;3.58;;;;;;;9.55;34.21;97099.91;10410235;28;20072;-54
2023/03/28 09:02:01;;;;;;;8.65;3.00;;;;;;;9.28;35.74;97112.19;10410331;28;20115;-54
2023/03/28 09:07:13;;;;;;;4.55;2.90;;;;;;;9.19;34.35;97064.78;10369455;28;20032;-54
2023/03/28 09:12:29;;;;;;;7.03;3.22;;;;;;;9.40;34.84;97133.72;10369717;28;20116;-54
2023/03/28 09:18:00;;;;;;;6.55;3.55;;;;;;;9.34;35.47;97138.03;10369404;28;20060;-54
2023/03/28 09:23:24;;;;;;;7.63;4.18;;;;;;;8.94;34.17;97156.31;10344409;28;20889;-54
2023/03/28 09:28:41;;;;;;;5.68;3.80;;;;;;;8.75;35.31;97136.56;10379477;28;20126;-54
2023/03/28 09:33:44;;;;;;;4.22;3.30;;;;;;;9.16;35.72;97143.31;10357035;28;20466;-54
2023/03/28 09:38:54;;;;;;;6.57;3.58;;;;;;;9.40;34.47;97157.00;10356884;28;20145;-54
2023/03/28 09:43:55;;;;;;;;;;;;;;;9.41;34.83;97146.63;10371632;28;20855;-55
2023/03/28 09:48:54;;;;;;;6.78;3.53;;;;;;;9.57;34.96;97139.63;10354749;28;19963;-55
2023/03/28 09:53:53;;;;;;;5.80;3.70;;;;;;;9.43;36.43;97121.59;10378758;28;20064;-55
2023/03/28 09:58:58;;;;;;;6.88;4.28;;;;;;;9.89;35.72;97156.69;10382561;28;20047;-55
2023/03/28 10:03:57;;;;;;;7.60;4.60;;;;;;;9.78;33.54;97162.78;10372505;28;20159;-55
2023/03/28 10:09:22;;;;;;;4.47;3.40;;;;;;;9.50;32.57;97146.56;10380459;28;20060;-55
2023/03/28 10:14:36;;;;;;;5.28;4.00;;;;;;;9.93;33.98;97153.16;10373950;28;20140;-54
2023/03/28 10:19:38;;;;;;;9.23;6.05;;;;;;;10.55;33.72;97171.63;10384308;28;20064;-54
2023/03/28 10:24:39;;;;;;;9.75;4.07;;;;;;;9.32;29.77;97175.16;10366391;28;20489;-54
2023/03/28 10:29:38;;;;;;;26.67;11.95;;;;;;;7.40;31.91;97173.72;10364084;28;20072;-54
2023/03/28 10:34:37;;;;;;;12.63;6.32;;;;;;;7.05;32.03;97196.78;10363899;28;20099;-54
2023/03/28 10:39:36;;;;;;;20.05;6.00;;;;;;;6.95;35.34;97161.50;10365541;28;20123;-55
2023/03/28 10:44:35;;;;;;;5.35;3.30;;;;;;;7.35;32.42;97162.47;10357140;28;20021;-54
2023/03/28 10:49:54;;;;;;;4.00;3.20;;;;;;;8.16;33.93;97176.38;10363856;28;20032;-54
2023/03/28 10:55:08;;;;;;;5.05;2.80;;;;;;;8.99;32.93;97181.34;10363343;28;20136;-55
2023/03/28 11:00:37;;;;;;;5.40;3.78;;;;;;;9.50;33.29;97179.38;10354179;28;20132;-55
2023/03/28 11:05:55;;;;;;;3.83;2.70;;;;;;;8.77;31.87;97180.56;10382699;28;20142;-54
2023/03/28 11:11:10;;;;;;;2.60;2.40;;;;;;;8.78;31.68;97188.28;10354792;28;20115;-54
2023/03/28 11:16:08;;;;;;;5.60;3.70;;;;;;;8.99;33.51;97191.69;10385364;28;20111;-54
2023/03/28 11:21:11;;;;;;;3.78;3.22;;;;;;;9.18;32.19;97167.44;10385805;28;20040;-54
2023/03/28 11:26:15;;;;;;;3.50;3.20;;;;;;;8.63;32.95;97178.00;10365693;28;20771;-54
2023/03/28 11:31:21;;;;;;;5.32;3.75;;;;;;;7.75;32.89;97113.50;10385090;28;20071;-55
2023/03/28 11:36:40;;;;;;;17.92;12.13;;;;;;;8.25;32.95;97205.66;10364736;28;20693;-54
2023/03/28 11:41:42;;;;;;;7.83;3.07;;;;;;;7.39;31.72;97197.78;10365025;28;20068;-53
2023/03/28 11:47:15;;;;;;;11.00;4.63;;;;;;;7.29;30.39;97205.47;10393119;28;20044;-54
2023/03/28 11:52:36;;;;;;;11.27;2.90;;;;;;;6.26;30.12;97208.41;10362336;28;20080;-53
2023/03/28 11:58:10;;;;;;;7.45;2.55;;;;;;;6.67;29.17;97200.06;10374058;28;20057;-53
2023/03/28 12:03:29;;;;;;;8.00;2.40;;;;;;;7.17;28.27;97195.97;10367174;28;20068;-54
2023/03/28 12:08:42;;;;;;;5.70;2.80;;;;;;;6.93;28.16;97217.38;10379524;28;20087;-53
2023/03/28 12:14:00;;;;;;;3.85;2.17;;;;;;;6.56;28.76;97225.81;10357748;28;20065;-54
2023/03/28 12:19:02;;;;;;;3.00;2.25;;;;;;;6.35;28.94;97234.25;10379818;28;20518;-53
2023/03/28 12:24:26;;;;;;;8.35;4.72;;;;;;;6.38;29.09;97247.16;10392533;28;20060;-54
2023/03/28 12:29:31;;;;;;;3.70;2.58;;;;;;;6.39;28.55;97253.16;10375698;28;20060;-53
2023/03/28 12:34:45;;;;;;;3.30;2.03;;;;;;;5.93;29.57;97230.47;10383989;28;20139;-52
2023/03/28 12:39:52;;;;;;;4.53;2.78;;;;;;;6.42;28.28;97249.75;10370174;28;20490;-54
2023/03/28 12:44:58;;;;;;;5.22;3.17;;;;;;;6.32;28.26;97256.53;10385978;28;20051;-52
2023/03/28 12:50:00;;;;;;;8.48;3.25;;;;;;;6.70;28.59;97269.72;10389038;28;20052;-53
2023/03/28 12:55:03;;;;;;;4.75;2.70;;;;;;;7.05;27.88;97279.34;10388310;28;20067;-53
2023/03/28 13:00:16;;;;;;;4.63;2.85;;;;;;;6.78;27.49;97290.38;10388812;28;20079;-53
2023/03/28 13:05:39;;;;;;;4.03;2.90;;;;;;;6.72;29.08;97280.88;10377043;28;20128;-52
2023/03/28 13:10:43;;;;;;;4.78;3.08;;;;;;;7.13;29.26;97288.00;10390228;28;20072;-52
2023/03/28 13:16:02;;;;;;;3.88;2.80;;;;;;;6.37;27.85;97255.75;10383755;28;20049;-52
2023/03/28 13:21:04;;;;;;;3.00;2.33;;;;;;;6.61;28.44;97334.97;10397509;28;20059;-53
2023/03/28 13:26:05;;;;;;;3.88;2.33;;;;;;;6.99;27.64;97310.28;10367220;28;20467;-52
2023/03/28 13:31:08;;;;;;;3.20;2.40;;;;;;;6.91;27.51;97317.09;10371701;28;20060;-52
2023/03/28 13:36:07;;;;;;;3.88;2.47;;;;;;;6.77;28.28;97306.69;10367225;28;20387;-52
2023/03/28 13:41:10;;;;;;;2.88;2.13;;;;;;;6.46;27.93;97332.25;10373681;28;20459;-53
2023/03/28 13:46:40;;;;;;;6.15;3.10;;;;;;;6.44;28.90;97336.53;10380603;28;20060;-53
2023/03/28 13:51:46;;;;;;;2.90;2.13;;;;;;;5.95;29.01;97361.81;10374964;28;20076;-52
2023/03/28 13:56:47;;;;;;;7.13;3.60;;;;;;;6.11;28.35;97343.09;10363358;28;20083;-52
2023/03/28 14:01:54;;;;;;;7.40;4.28;;;;;;;6.34;29.94;97387.13;10387716;28;20048;-53
2023/03/28 14:06:55;;;;;;;7.80;3.92;;;;;;;6.51;29.13;97400.16;10374095;28;20127;-52
2023/03/28 14:12:02;;;;;;;6.50;3.95;;;;;;;6.51;29.33;97355.50;10371189;28;20126;-54
2023/03/28 14:17:10;;;;;;;8.95;5.63;;;;;;;6.14;29.36;97378.31;10389160;28;20052;-53
2023/03/28 14:22:17;;;;;;;6.80;3.55;;;;;;;5.60;29.75;97387.16;10365711;28;20116;-52
2023/03/28 14:27:29;;;;;;;6.82;4.15;;;;;;;5.77;29.74;97403.69;10368680;28;20069;-52
2023/03/28 14:32:31;;;;;;;6.93;3.05;;;;;;;5.76;28.62;97373.63;10369737;28;20059;-52
2023/03/28 14:37:30;;;;;;;4.30;2.97;;;;;;;5.73;30.83;97422.50;10357885;28;20136;-52
2023/03/28 14:42:30;;;;;;;8.35;4.00;;;;;;;5.57;29.82;97424.00;10391844;28;20052;-54
2023/03/28 14:47:32;;;;;;;8.88;4.75;;;;;;;5.28;29.29;97419.34;10368066;28;20463;-52
2023/03/28 14:52:35;;;;;;;6.80;3.63;;;;;;;5.17;29.55;97453.47;10392102;28;20056;-52
2023/03/28 14:57:36;;;;;;;4.95;2.85;;;;;;;4.83;30.48;97460.56;10374937;28;20051;-52
2023/03/28 15:02:39;;;;;;;7.78;2.70;;;;;;;4.75;29.75;97475.03;10364951;28;20128;-51
2023/03/28 15:07:38;;;;;;;6.43;3.10;;;;;;;4.86;29.68;97483.78;10363052;28;20105;-51
2023/03/28 15:12:40;;;;;;;12.45;4.55;;;;;;;5.04;30.31;97476.41;10394929;28;20099;-52
2023/03/28 15:17:40;;;;;;;8.43;3.80;;;;;;;5.38;30.40;97473.50;10368689;28;20464;-49
2023/03/28 15:22:39;;;;;;;7.40;3.83;;;;;;;5.19;30.14;97472.34;10364403;28;20051;-51
2023/03/28 15:27:39;;;;;;;6.15;3.30;;;;;;;5.11;29.91;97497.94;10371104;28;20076;-51
2023/03/28 15:32:39;;;;;;;8.57;3.80;;;;;;;4.75;29.20;97469.88;10396675;28;20070;-49
2023/03/28 15:37:43;;;;;;;9.63;5.25;;;;;;;4.71;29.92;97510.06;10367196;28;20157;-48
2023/03/28 15:42:47;;;;;;;10.10;5.75;;;;;;;4.90;29.83;97513.88;10387714;28;20129;-50
2023/03/28 15:47:53;;;;;;;4.63;3.20;;;;;;;4.80;30.35;97505.09;10369482;28;20048;-51
2023/03/28 15:52:57;;;;;;;4.90;3.20;;;;;;;4.62;29.42;97554.47;10377056;28;20079;-51
2023/03/28 15:57:57;;;;;;;5.18;3.25;;;;;;;4.60;29.58;97545.88;10396217;28;20059;-50
2023/03/28 16:03:18;;;;;;;7.32;4.20;;;;;;;4.84;29.87;97553.16;10368785;28;20152;-51
2023/03/28 16:08:39;;;;;;;4.32;2.80;;;;;;;4.61;30.42;97575.88;10361160;28;20053;-52
2023/03/28 16:13:39;;;;;;;5.90;3.10;;;;;;;4.48;30.68;97568.78;10386318;28;20064;-52
2023/03/28 16:18:38;;;;;;;5.18;2.78;;;;;;;4.68;30.53;97567.44;10339185;28;20130;-50
2023/03/28 16:23:37;;;;;;;7.50;3.92;;;;;;;4.63;31.27;97566.47;10405161;28;20054;-50
2023/03/28 16:28:36;;;;;;;6.68;3.90;;;;;;;4.56;31.24;97577.47;10365362;28;20060;-53
2023/03/28 16:33:35;;;;;;;6.50;3.53;;;;;;;4.34;32.04;97583.00;10375207;28;20103;-52
2023/03/28 16:38:34;;;;;;;6.22;3.65;;;;;;;4.50;32.18;97590.19;10378753;28;20745;-51
2023/03/28 16:43:33;;;;;;;8.80;4.28;;;;;;;4.33;32.97;97571.88;10382750;28;20061;-53
2023/03/28 16:48:33;;;;;;;3.40;2.35;;;;;;;3.94;33.69;97566.75;10399173;28;20063;-51
2023/03/28 16:53:35;;;;;;;13.35;6.72;;;;;;;4.16;34.60;97624.59;10375060;28;20076;-52
2023/03/28 16:58:34;;;;;;;11.55;5.18;;;;;;;3.99;34.86;97645.63;10399222;28;20540;-52
2023/03/28 17:03:33;;;;;;;6.90;3.90;;;;;;;3.77;34.54;97679.31;10375075;28;20060;-52
2023/03/28 17:08:32;;;;;;;7.13;4.03;;;;;;;3.68;34.88;97666.25;10367569;28;20068;-52
2023/03/28 17:13:31;;;;;;;7.13;3.83;;;;;;;3.76;35.04;97670.75;10397998;28;20028;-52
2023/03/28 17:18:30;;;;;;;3.85;1.88;;;;;;;3.77;35.28;97690.44;10371330;28;20064;-49
2023/03/28 17:23:30;;;;;;;3.75;2.50;;;;;;;3.60;36.55;97702.00;10394978;28;20458;-49
2023/03/28 17:28:29;;;;;;;2.60;1.92;;;;;;;3.47;36.76;97702.50;10387321;28;20079;-51
2023/03/28 17:33:30;;;;;;;;;;;;;;;3.57;37.77;97712.19;10370353;28;20565;-49
2023/03/28 17:38:28;;;;;;;;;;;;;;;3.53;38.33;97713.78;10373893;28;20438;-51
2023/03/28 17:43:27;;;;;;;5.35;3.05;;;;;;;3.51;39.37;97728.28;10392666;28;20450;-50
2023/03/28 17:48:27;;;;;;;11.13;6.32;;;;;;;3.34;40.01;97743.22;10369697;28;20522;-51
2023/03/28 17:53:26;;;;;;;4.45;2.72;;;;;;;3.17;40.56;97764.97;10393485;28;20107;-51
2023/03/28 17:58:25;;;;;;;2.88;2.15;;;;;;;3.28;40.94;97794.31;10369751;28;20072;-52
2023/03/28 18:03:25;;;;;;;8.30;5.30;;;;;;;2.95;40.13;97779.72;10366784;28;20064;-50
2023/03/28 18:08:26;;;;;;;5.20;2.17;;;;;;;2.91;39.64;97823.16;10373876;28;20056;-50
2023/03/28 18:13:25;;;;;;;11.45;5.00;;;;;;;2.89;39.53;97818.00;10370169;28;20079;-50
2023/03/28 18:18:24;;;;;;;22.80;10.73;;;;;;;3.12;39.06;97816.13;10360223;28;20116;-51
2023/03/28 18:23:23;;;;;;;4.78;3.05;;;;;;;2.87;39.96;97837.59;10393391;28;20400;-50
2023/03/28 18:28:22;;;;;;;9.32;5.82;;;;;;;3.17;39.67;97821.38;10376720;28;20144;-50
2023/03/28 18:33:21;;;;;;;7.57;5.03;;;;;;;3.17;40.03;97821.38;10358285;28;20120;-52
2023/03/28 18:38:20;;;;;;;4.40;2.60;;;;;;;3.10;40.41;97829.72;10373409;28;20041;-52
2023/03/28 18:43:20;;;;;;;5.57;3.30;;;;;;;2.94;40.25;97824.13;10360718;28;20025;-53
2023/03/28 18:48:20;;;;;;;6.95;4.10;;;;;;;3.00;40.75;97828.56;10365677;28;20056;-50
2023/03/28 18:53:21;;;;;;;3.83;2.60;;;;;;;2.79;40.62;97826.22;10373723;28;20131;-51
2023/03/28 18:58:24;;;;;;;2.67;2.10;;;;;;;2.73;41.19;97859.34;10410791;28;20528;-50
2023/03/28 19:03:28;;;;;;;4.05;2.20;;;;;;;2.62;41.58;97871.81;10419558;28;20123;-51
2023/03/28 19:08:28;;;;;;;4.97;2.95;;;;;;;2.71;41.60;97876.38;10412497;28;20476;-51
2023/03/28 19:13:27;;;;;;;7.72;3.95;;;;;;;2.67;41.65;97884.78;10412666;28;20144;-51
2023/03/28 19:18:27;;;;;;;6.22;3.78;;;;;;;2.65;41.70;97889.84;10413011;28;20513;-51
2023/03/28 19:23:27;;;;;;;4.72;2.85;;;;;;;2.31;42.05;97890.44;10420163;28;20444;-52
2023/03/28 19:28:26;;;;;;;9.70;4.30;;;;;;;2.40;42.18;97893.31;10412558;28;20072;-50
2023/03/28 19:33:26;;;;;;;6.10;4.13;;;;;;;2.36;41.61;97888.91;10423438;28;20028;-52
2023/03/28 19:38:26;;;;;;;6.55;3.60;;;;;;;2.28;42.18;97915.94;10428249;28;20067;-50
2023/03/28 19:43:25;;;;;;;4.63;1.85;;;;;;;2.12;41.98;97919.66;10417281;28;20058;-51
2023/03/28 19:48:25;;;;;;;4.38;2.30;;;;;;;2.28;41.83;97916.81;10423609;28;20559;-50
2023/03/28 19:53:24;;;;;;;16.90;7.22;;;;;;;2.41;41.78;97930.88;10417059;28;20072;-52
2023/03/28 19:58:24;;;;;;;29.75;14.98;;;;;;;2.44;41.97;97917.31;10399044;28;20128;-50
2023/03/28 20:03:24;;;;;;;30.33;14.00;;;;;;;2.40;42.37;97907.81;10425000;28;20056;-53
2023/03/28 20:08:23;;;;;;;17.60;7.75;;;;;;;2.32;41.85;97928.88;10417394;28;20079;-52
2023/03/28 20:13:22;;;;;;;35.80;19.73;;;;;;;2.46;41.76;97938.72;10424289;28;20024;-49
2023/03/28 20:18:21;;;;;;;11.55;6.13;;;;;;;2.19;42.19;97925.88;10419619;28;20526;-53
2023/03/28 20:23:22;;;;;;;42.00;24.98;;;;;;;2.11;42.18;97933.25;10429820;28;20071;-51
2023/03/28 20:28:28;;;;;;;10.35;4.93;;;;;;;1.87;43.09;97941.81;10422340;28;20072;-51
2023/03/28 20:33:27;;;;;;;9.40;5.18;;;;;;;1.90;43.59;97935.94;10430086;28;20123;-51
2023/03/28 20:38:26;;;;;;;14.93;6.30;;;;;;;1.99;43.89;97948.19;10433991;28;20121;-51
2023/03/28 20:43:28;;;;;;;4.28;2.80;;;;;;;1.53;43.42;97904.78;10423705;28;20067;-48
2023/03/28 20:48:35;;;;;;;4.70;2.70;;;;;;;1.88;43.46;97961.50;10431003;28;20074;-51
2023/03/28 20:53:34;;;;;;;8.63;4.20;;;;;;;1.78;43.68;97897.97;10430912;28;20079;-50
2023/03/28 20:58:33;;;;;;;15.75;6.43;;;;;;;2.06;43.22;97947.59;10391695;28;20044;-51
2023/03/28 21:03:47;;;;;;;3.58;2.03;;;;;;;1.87;43.78;97949.50;10392097;28;20136;-50
2023/03/28 21:08:48;;;;;;;4.43;2.42;;;;;;;2.00;42.91;97972.97;10400410;28;20136;-53
2023/03/28 21:13:48;;;;;;;17.13;8.32;;;;;;;1.94;42.76;97965.94;10413007;28;20115;-52
2023/03/28 21:18:48;;;;;;;3.45;2.28;;;;;;;1.98;44.20;97980.59;10398190;28;20071;-51
2023/03/28 21:23:48;;;;;;;8.85;4.55;;;;;;;1.98;45.21;97952.44;10405970;28;20496;-50
2023/03/28 21:28:48;;;;;;;14.30;7.45;;;;;;;2.20;45.26;97953.19;10393661;28;20099;-52
2023/03/28 21:33:48;;;;;;;6.10;3.20;;;;;;;2.24;44.86;97973.84;10392776;28;20055;-51
2023/03/28 21:38:47;;;;;;;;;;;;;;;2.37;44.69;97978.59;10401839;28;20140;-52
2023/03/28 21:43:47;;;;;;;7.90;2.88;;;;;;;2.36;44.76;97986.22;10414704;28;19917;-52
2023/03/28 21:48:46;;;;;;;5.70;2.30;;;;;;;2.33;44.13;97986.13;10399135;28;20111;-51
2023/03/28 21:53:45;;;;;;;3.83;2.22;;;;;;;1.92;44.54;98005.97;10416872;28;20313;-49
2023/03/28 21:58:44;;;;;;;5.03;2.80;;;;;;;2.16;44.36;97998.28;10422847;28;20462;-49
2023/03/28 22:03:45;;;;;;;8.77;3.15;;;;;;;2.19;44.17;98012.91;10402467;28;20418;-50
2023/03/28 22:08:45;;;;;;;2.22;1.63;;;;;;;1.83;44.56;98015.84;10416838;28;20059;-51
2023/03/28 22:13:46;;;;;;;3.40;1.88;;;;;;;1.77;44.91;98007.97;10395406;28;20087;-50
2023/03/28 22:18:48;;;;;;;4.18;1.92;;;;;;;1.86;44.50;98004.06;10401178;28;20127;-51
2023/03/28 22:23:48;;;;;;;5.97;1.58;;;;;;;1.51;44.82;98012.97;10404611;28;20075;-51
2023/03/28 22:28:50;;;;;;;3.25;1.80;;;;;;;1.67;44.75;98016.94;10402142;28;20526;-51
2023/03/28 22:33:48;;;;;;;4.03;1.88;;;;;;;1.66;44.74;98030.56;10399805;28;20125;-50
2023/03/28 22:38:47;;;;;;;3.20;1.83;;;;;;;1.73;44.58;98018.06;10394288;28;20111;-51
2023/03/28 22:43:46;;;;;;;4.75;2.15;;;;;;;1.80;44.47;98013.19;10406462;28;20028;-52
2023/03/28 22:48:52;;;;;;;3.78;1.90;;;;;;;1.73;44.25;98018.06;10418083;28;20068;-51
2023/03/28 22:53:52;;;;;;;2.17;1.70;;;;;;;1.60;44.22;98023.53;10404540;28;20072;-52
2023/03/28 22:58:52;;;;;;;6.57;3.35;;;;;;;1.67;44.43;98017.84;10385288;28;20727;-50
2023/03/28 23:03:52;;;;;;;4.50;2.25;;;;;;;1.39;44.17;98027.78;10414797;28;20072;-52
2023/03/28 23:08:52;;;;;;;5.18;2.20;;;;;;;1.23;43.91;98006.75;10437668;28;20111;-51
2023/03/28 23:13:51;;;;;;;4.25;2.78;;;;;;;1.16;43.44;98009.88;10408295;28;20064;-52
2023/03/28 23:18:50;;;;;;;2.60;1.55;;;;;;;1.40;42.82;98027.00;10422801;28;20043;-49
2023/03/28 23:23:50;;;;;;;4.18;1.65;;;;;;;1.34;42.68;98025.06;10438330;28;20062;-52
2023/03/28 23:28:49;;;;;;;2.42;1.80;;;;;;;1.64;42.50;98037.31;10429312;28;20075;-50
2023/03/28 23:33:48;;;;;;;2.22;1.40;;;;;;;1.66;41.96;98039.09;10408940;28;20082;-51
2023/03/28 23:38:47;;;;;;;4.70;1.80;;;;;;;1.66;42.41;98051.03;10416328;28;20035;-51
2023/03/28 23:43:46;;;;;;;;;;;;;;;1.62;41.90;98062.84;10439394;28;20533;-53
2023/03/28 23:48:45;;;;;;;3.83;1.70;;;;;;;1.79;42.02;98062.63;10402506;28;20380;-51